Time;durP1;ratioP1;P1;durP2;ratioP2;P2;SDS_P1;SDS_P2;PMS_P1;PMS_P2;Temp;Humidity;BMP_temperature;BMP_pressure;BME280_temperature;BME280_humidity;BME280_pressure;Samples;Min_cycle;Max_cycle;Signal;HPM_P1;HPM_P2
2022/12/19 00:01:17;;;;;;;0.30;0.30;;;;;;;;;;1841702;77;26227;-90
2022/12/19 00:03:45;;;;;;;0.20;0.20;;;;;;;;;;1847144;77;26346;-89
2022/12/19 00:06:13;;;;;;;1.62;0.40;;;;;;;;;;1838871;76;26892;-88
2022/12/19 00:08:42;;;;;;;0.30;0.30;;;;;;;;;;1846782;77;26341;-89
2022/12/19 00:11:09;;;;;;;0.37;0.37;;;;;;;;;;1846688;76;26325;-89
2022/12/19 00:13:37;;;;;;;0.30;0.30;;;;;;;;;;1841181;77;26247;-86
2022/12/19 00:16:05;;;;;;;0.30;0.30;;;;;;;;;;1847648;76;26243;-87
2022/12/19 00:18:32;;;;;;;0.45;0.45;;;;;;;;;;1838545;76;26247;-86
2022/12/19 00:21:01;;;;;;;0.30;0.30;;;;;;;;;;1843571;77;26711;-88
2022/12/19 00:23:29;;;;;;;0.25;0.20;;;;;;;;;;1843984;77;26772;-87
2022/12/19 00:25:58;;;;;;;0.20;0.20;;;;;;;;;;1846554;77;26247;-86
2022/12/19 00:28:26;;;;;;;0.30;0.30;;;;;;;;;;1835433;76;26350;-84
2022/12/19 00:30:53;;;;;;;0.57;0.45;;;;;;;;;;1847033;76;26247;-90
2022/12/19 00:33:20;;;;;;;0.30;0.30;;;;;;;;;;1843670;77;26293;-90
2022/12/19 00:35:47;;;;;;;0.30;0.30;;;;;;;;;;1844231;77;26290;-89
2022/12/19 00:38:15;;;;;;;0.25;0.25;;;;;;;;;;1847858;77;26301;-89
2022/12/19 00:40:42;;;;;;;0.30;0.30;;;;;;;;;;1846186;77;26232;-89
2022/12/19 00:43:09;;;;;;;0.65;0.42;;;;;;;;;;1846110;77;26259;-89
2022/12/19 00:45:37;;;;;;;0.20;0.20;;;;;;;;;;1847299;77;26311;-89
2022/12/19 00:48:05;;;;;;;0.42;0.42;;;;;;;;;;1846969;77;26309;-89
2022/12/19 00:50:32;;;;;;;0.30;0.30;;;;;;;;;;1847013;77;26255;-89
2022/12/19 00:52:59;;;;;;;0.30;0.30;;;;;;;;;;1843462;76;26321;-88
2022/12/19 00:55:27;;;;;;;0.40;0.40;;;;;;;;;;1846871;77;26692;-89
2022/12/19 00:57:54;;;;;;;0.30;0.30;;;;;;;;;;1843064;77;26286;-89
2022/12/19 01:00:21;;;;;;;0.20;0.20;;;;;;;;;;1846460;77;27393;-89
2022/12/19 01:02:48;;;;;;;0.40;0.40;;;;;;;;;;1846627;76;27846;-90
2022/12/19 01:05:16;;;;;;;0.62;0.40;;;;;;;;;;1846656;77;26361;-89
2022/12/19 01:07:43;;;;;;;0.30;0.30;;;;;;;;;;1842957;77;26235;-89
2022/12/19 01:10:10;;;;;;;0.20;0.20;;;;;;;;;;1847571;77;26233;-90
2022/12/19 01:12:46;;;;;;;0.28;0.28;;;;;;;;;;1849012;76;26751;-89
2022/12/19 01:15:15;;;;;;;0.33;0.30;;;;;;;;;;1845317;76;26289;-89
2022/12/19 01:17:42;;;;;;;0.40;0.40;;;;;;;;;;1849207;76;26712;-87
2022/12/19 01:20:10;;;;;;;0.20;0.20;;;;;;;;;;1850014;76;26287;-88
2022/12/19 01:22:38;;;;;;;1.22;0.40;;;;;;;;;;1850028;77;26259;-87
2022/12/19 01:25:05;;;;;;;0.30;0.30;;;;;;;;;;1851741;76;26258;-87
2022/12/19 01:27:33;;;;;;;0.33;0.33;;;;;;;;;;1848772;76;26258;-89
2022/12/19 01:30:00;;;;;;;0.47;0.47;;;;;;;;;;1847037;76;26236;-88
2022/12/19 01:32:28;;;;;;;0.50;0.50;;;;;;;;;;1847907;76;26297;-88
2022/12/19 01:34:55;;;;;;;0.85;0.30;;;;;;;;;;1844375;76;26286;-87
2022/12/19 01:37:22;;;;;;;0.20;0.20;;;;;;;;;;1851198;76;26247;-88
2022/12/19 01:39:49;;;;;;;0.30;0.30;;;;;;;;;;1853008;76;26303;-87
2022/12/19 01:42:18;;;;;;;0.30;0.30;;;;;;;;;;1848813;76;26250;-87
2022/12/19 01:44:59;;;;;;;0.25;0.20;;;;;;;;;;1844298;77;26278;-87
2022/12/19 01:47:26;;;;;;;0.30;0.30;;;;;;;;;;1846418;76;26771;-87
2022/12/19 01:49:54;;;;;;;0.37;0.37;;;;;;;;;;1847202;76;26395;-88
2022/12/19 01:52:23;;;;;;;0.42;0.40;;;;;;;;;;1848658;76;26917;-87
2022/12/19 01:54:50;;;;;;;0.37;0.37;;;;;;;;;;1851738;76;26941;-87
2022/12/19 01:57:19;;;;;;;1.15;0.40;;;;;;;;;;1848476;76;26212;-87
2022/12/19 01:59:48;;;;;;;0.30;0.30;;;;;;;;;;1849557;76;27185;-87
2022/12/19 02:02:23;;;;;;;0.42;0.40;;;;;;;;;;1843571;76;26219;-87
2022/12/19 02:04:50;;;;;;;0.53;0.40;;;;;;;;;;1848634;76;26309;-87
2022/12/19 02:07:19;;;;;;;0.23;0.23;;;;;;;;;;1849557;76;26243;-88
2022/12/19 02:09:48;;;;;;;0.60;0.30;;;;;;;;;;1849692;76;26329;-89
2022/12/19 02:12:15;;;;;;;0.30;0.30;;;;;;;;;;1842301;76;26545;-86
2022/12/19 02:14:43;;;;;;;0.20;0.20;;;;;;;;;;1846775;77;26229;-87
2022/12/19 02:17:15;;;;;;;0.35;0.35;;;;;;;;;;1841564;77;26802;-87
2022/12/19 02:19:52;;;;;;;0.30;0.30;;;;;;;;;;1847473;77;26703;-87
2022/12/19 02:22:34;;;;;;;0.30;0.20;;;;;;;;;;1842768;77;26301;-87
2022/12/19 02:25:14;;;;;;;1.00;0.50;;;;;;;;;;1828539;76;26247;-88
2022/12/19 02:27:46;;;;;;;0.30;0.30;;;;;;;;;;1846057;77;26702;-88
2022/12/19 02:30:15;;;;;;;0.55;0.30;;;;;;;;;;1847442;77;26335;-87
2022/12/19 02:32:49;;;;;;;0.53;0.53;;;;;;;;;;1846572;77;26259;-85
2022/12/19 02:35:18;;;;;;;0.35;0.35;;;;;;;;;;1840650;76;26719;-87
2022/12/19 02:37:50;;;;;;;0.40;0.40;;;;;;;;;;1847449;77;26266;-87
2022/12/19 02:40:19;;;;;;;0.25;0.25;;;;;;;;;;1847537;77;26673;-87
2022/12/19 02:42:48;;;;;;;0.40;0.30;;;;;;;;;;1846625;77;26763;-87
2022/12/19 02:45:16;;;;;;;0.30;0.30;;;;;;;;;;1841945;77;26271;-87
2022/12/19 02:47:44;;;;;;;0.20;0.20;;;;;;;;;;1835934;76;26275;-86
2022/12/19 02:50:11;;;;;;;0.33;0.33;;;;;;;;;;1832573;77;26348;-87
2022/12/19 02:52:40;;;;;;;0.20;0.20;;;;;;;;;;1832439;77;26254;-87
2022/12/19 02:55:09;;;;;;;0.40;0.40;;;;;;;;;;1833577;77;26321;-87
2022/12/19 02:57:49;;;;;;;0.20;0.20;;;;;;;;;;1840008;76;26243;-87
2022/12/19 03:00:18;;;;;;;0.30;0.30;;;;;;;;;;1833214;77;26256;-86
2022/12/19 03:02:53;;;;;;;0.30;0.30;;;;;;;;;;1856681;77;26735;-87
2022/12/19 03:05:28;;;;;;;0.23;0.23;;;;;;;;;;1829959;77;26269;-87
2022/12/19 03:08:03;;;;;;;0.30;0.30;;;;;;;;;;1854592;76;26340;-87
2022/12/19 03:10:34;;;;;;;0.50;0.30;;;;;;;;;;1847609;76;27392;-87
2022/12/19 03:13:03;;;;;;;0.20;0.20;;;;;;;;;;1848865;76;26294;-87
2022/12/19 03:15:31;;;;;;;0.40;0.40;;;;;;;;;;1858281;76;26243;-87
2022/12/19 03:17:59;;;;;;;0.20;0.20;;;;;;;;;;1856927;76;26301;-87
2022/12/19 03:20:34;;;;;;;0.30;0.30;;;;;;;;;;1865681;76;25705;-87
2022/12/19 03:23:01;;;;;;;0.35;0.35;;;;;;;;;;1868184;76;26314;-87
2022/12/19 03:25:30;;;;;;;0.10;0.10;;;;;;;;;;1850119;76;26255;-87
2022/12/19 03:27:59;;;;;;;1.00;0.37;;;;;;;;;;1849789;76;26297;-88
2022/12/19 03:30:26;;;;;;;0.28;0.28;;;;;;;;;;1850085;77;26223;-87
2022/12/19 03:32:54;;;;;;;0.33;0.33;;;;;;;;;;1848546;76;26297;-88
2022/12/19 03:35:24;;;;;;;0.30;0.30;;;;;;;;;;1851559;76;26278;-87
2022/12/19 03:37:54;;;;;;;0.40;0.40;;;;;;;;;;1853059;76;26262;-88
2022/12/19 03:40:22;;;;;;;0.30;0.30;;;;;;;;;;1851209;77;26711;-85
2022/12/19 03:43:09;;;;;;;0.20;0.20;;;;;;;;;;1836679;77;26261;-87
2022/12/19 03:45:41;;;;;;;0.30;0.30;;;;;;;;;;1833683;76;26248;-88
2022/12/19 03:48:10;;;;;;;0.20;0.20;;;;;;;;;;1850124;76;26712;-88
2022/12/19 03:50:39;;;;;;;0.30;0.30;;;;;;;;;;1848199;76;26724;-88
2022/12/19 03:53:13;;;;;;;0.28;0.28;;;;;;;;;;1858358;76;26361;-87
2022/12/19 03:55:49;;;;;;;0.40;0.40;;;;;;;;;;1829431;76;26728;-87
2022/12/19 03:58:18;;;;;;;0.35;0.35;;;;;;;;;;1834139;77;26850;-87
2022/12/19 04:00:47;;;;;;;0.35;0.35;;;;;;;;;;1850030;76;26271;-88
2022/12/19 04:03:16;;;;;;;0.20;0.20;;;;;;;;;;1847833;77;26670;-88
2022/12/19 04:05:45;;;;;;;0.40;0.40;;;;;;;;;;1846671;76;26208;-87
2022/12/19 04:08:12;;;;;;;0.20;0.20;;;;;;;;;;1848186;76;26259;-88
2022/12/19 04:10:44;;;;;;;0.30;0.30;;;;;;;;;;1841679;76;26682;-88
2022/12/19 04:13:13;;;;;;;0.30;0.30;;;;;;;;;;1837158;76;26279;-88
2022/12/19 04:15:45;;;;;;;0.37;0.37;;;;;;;;;;1843920;77;26251;-88
2022/12/19 04:18:13;;;;;;;0.20;0.20;;;;;;;;;;1847046;76;26220;-88
2022/12/19 04:20:42;;;;;;;0.30;0.30;;;;;;;;;;1829644;76;26785;-88
2022/12/19 04:23:11;;;;;;;0.60;0.60;;;;;;;;;;1842666;77;26292;-88
2022/12/19 04:25:43;;;;;;;0.30;0.30;;;;;;;;;;1852803;77;26276;-88
2022/12/19 04:28:15;;;;;;;0.40;0.40;;;;;;;;;;1849193;76;26286;-89
2022/12/19 04:30:42;;;;;;;0.57;0.30;;;;;;;;;;1840690;76;26251;-87
2022/12/19 04:33:09;;;;;;;0.30;0.30;;;;;;;;;;1826981;77;26325;-88
2022/12/19 04:35:37;;;;;;;0.30;0.30;;;;;;;;;;1820313;77;26818;-88
2022/12/19 04:38:04;;;;;;;0.30;0.30;;;;;;;;;;1845484;77;26293;-88
2022/12/19 04:40:32;;;;;;;0.37;0.37;;;;;;;;;;1846687;77;26278;-88
2022/12/19 04:42:59;;;;;;;0.53;0.40;;;;;;;;;;1826453;76;26802;-87
2022/12/19 04:45:26;;;;;;;0.30;0.30;;;;;;;;;;1852894;77;26727;-87
2022/12/19 04:47:53;;;;;;;0.50;0.50;;;;;;;;;;1846831;77;26250;-87
2022/12/19 04:50:21;;;;;;;0.40;0.40;;;;;;;;;;1814220;77;26242;-87
2022/12/19 04:52:48;;;;;;;0.40;0.40;;;;;;;;;;1840592;76;26301;-87
2022/12/19 04:55:15;;;;;;;0.30;0.30;;;;;;;;;;1846909;77;26263;-88
2022/12/19 04:57:42;;;;;;;0.53;0.30;;;;;;;;;;1827534;77;26321;-87
2022/12/19 05:00:10;;;;;;;0.30;0.30;;;;;;;;;;1846769;77;26266;-87
2022/12/19 05:02:37;;;;;;;0.30;0.30;;;;;;;;;;1850293;77;26306;-87
2022/12/19 05:05:05;;;;;;;0.30;0.30;;;;;;;;;;1842965;76;26239;-87
2022/12/19 05:07:32;;;;;;;0.30;0.30;;;;;;;;;;1846662;77;26890;-87
2022/12/19 05:09:59;;;;;;;0.30;0.30;;;;;;;;;;1846622;77;26803;-87
2022/12/19 05:12:28;;;;;;;0.30;0.30;;;;;;;;;;1846905;77;26941;-87
2022/12/19 05:14:55;;;;;;;0.25;0.25;;;;;;;;;;1845052;77;26408;-87
2022/12/19 05:17:22;;;;;;;0.30;0.30;;;;;;;;;;1846582;76;26802;-87
2022/12/19 05:19:49;;;;;;;0.30;0.30;;;;;;;;;;1837919;77;26767;-87
2022/12/19 05:22:17;;;;;;;0.20;0.20;;;;;;;;;;1840017;77;26270;-88
2022/12/19 05:24:44;;;;;;;0.30;0.30;;;;;;;;;;1847248;77;26369;-87
2022/12/19 05:27:11;;;;;;;0.30;0.30;;;;;;;;;;1847233;76;26267;-88
2022/12/19 05:29:38;;;;;;;0.30;0.30;;;;;;;;;;1847893;76;26271;-88
2022/12/19 05:32:06;;;;;;;0.40;0.40;;;;;;;;;;1848069;77;26231;-88
2022/12/19 05:34:33;;;;;;;0.30;0.30;;;;;;;;;;1846243;77;26322;-88
2022/12/19 05:37:02;;;;;;;0.35;0.35;;;;;;;;;;1844656;77;26325;-89
2022/12/19 05:39:30;;;;;;;0.40;0.40;;;;;;;;;;1843131;76;26290;-88
2022/12/19 05:41:57;;;;;;;0.30;0.30;;;;;;;;;;1846847;77;26291;-87
2022/12/19 05:44:24;;;;;;;0.30;0.30;;;;;;;;;;1845655;77;26235;-87
2022/12/19 05:46:52;;;;;;;0.20;0.20;;;;;;;;;;1847330;77;26627;-88
2022/12/19 05:49:19;;;;;;;0.40;0.40;;;;;;;;;;1814806;79;26343;-89
2022/12/19 05:51:46;;;;;;;0.47;0.40;;;;;;;;;;1839326;76;26583;-89
2022/12/19 05:54:14;;;;;;;0.40;0.40;;;;;;;;;;1850222;77;26243;-90
2022/12/19 05:56:41;;;;;;;0.40;0.40;;;;;;;;;;1857725;77;26654;-88
2022/12/19 05:59:10;;;;;;;0.40;0.40;;;;;;;;;;1848006;76;27082;-88
2022/12/19 06:01:38;;;;;;;0.57;0.57;;;;;;;;;;1846973;76;26255;-89
2022/12/19 06:04:06;;;;;;;0.47;0.47;;;;;;;;;;1846589;77;26259;-89
2022/12/19 06:06:34;;;;;;;0.40;0.40;;;;;;;;;;1842970;77;26259;-90
2022/12/19 06:09:01;;;;;;;0.60;0.60;;;;;;;;;;1846215;77;26263;-89
2022/12/19 06:11:29;;;;;;;0.55;0.55;;;;;;;;;;1845138;77;27220;-91
2022/12/19 06:13:56;;;;;;;0.53;0.53;;;;;;;;;;1844536;76;26271;-87
2022/12/19 06:16:23;;;;;;;0.35;0.35;;;;;;;;;;1849822;76;26254;-87
2022/12/19 06:18:50;;;;;;;0.50;0.50;;;;;;;;;;1860608;76;26270;-87
2022/12/19 06:21:19;;;;;;;0.55;0.55;;;;;;;;;;1845851;76;26287;-88
2022/12/19 06:23:46;;;;;;;0.60;0.60;;;;;;;;;;1850297;76;26839;-87
2022/12/19 06:26:15;;;;;;;0.47;0.47;;;;;;;;;;1846420;76;26766;-87
2022/12/19 06:28:44;;;;;;;0.68;0.57;;;;;;;;;;1837162;76;26322;-86
2022/12/19 06:31:12;;;;;;;0.42;0.42;;;;;;;;;;1836777;76;26376;-86
2022/12/19 06:33:39;;;;;;;0.50;0.50;;;;;;;;;;1859011;76;26235;-87
2022/12/19 06:36:07;;;;;;;0.70;0.70;;;;;;;;;;1847928;76;26307;-86
2022/12/19 06:38:35;;;;;;;1.27;0.68;;;;;;;;;;1847937;76;27170;-85
2022/12/19 06:43:49;;;;;;;0.60;0.60;;;;;;;;;;1850146;76;26783;-86
2022/12/19 06:46:17;;;;;;;0.70;0.70;;;;;;;;;;1848056;76;27247;-85
2022/12/19 06:48:44;;;;;;;0.62;0.62;;;;;;;;;;1847542;76;26846;-88
2022/12/19 06:51:11;;;;;;;0.68;0.68;;;;;;;;;;1846603;76;26680;-86
2022/12/19 06:53:39;;;;;;;0.70;0.70;;;;;;;;;;1849919;77;26239;-88
2022/12/19 06:56:07;;;;;;;0.60;0.60;;;;;;;;;;1849921;77;26571;-85
2022/12/19 06:58:34;;;;;;;0.60;0.60;;;;;;;;;;1848652;76;26267;-87
2022/12/19 07:01:01;;;;;;;0.70;0.70;;;;;;;;;;1842698;76;26321;-87
2022/12/19 07:03:30;;;;;;;0.80;0.80;;;;;;;;;;1849704;76;26180;-87
2022/12/19 07:05:57;;;;;;;1.42;0.70;;;;;;;;;;1848095;76;26251;-87
2022/12/19 07:08:28;;;;;;;0.80;0.80;;;;;;;;;;1849267;76;26755;-87
2022/12/19 07:10:56;;;;;;;0.70;0.70;;;;;;;;;;1849173;76;26324;-87
2022/12/19 07:13:23;;;;;;;0.90;0.70;;;;;;;;;;1848899;76;26924;-87
2022/12/19 07:15:52;;;;;;;0.70;0.70;;;;;;;;;;1845730;77;26364;-87
2022/12/19 07:18:19;;;;;;;0.80;0.80;;;;;;;;;;1843947;77;26317;-87
2022/12/19 07:20:47;;;;;;;0.70;0.70;;;;;;;;;;1846125;77;26254;-88
2022/12/19 07:23:15;;;;;;;0.75;0.75;;;;;;;;;;1843915;76;26258;-87
2022/12/19 07:25:43;;;;;;;0.70;0.70;;;;;;;;;;1845033;77;26247;-86
2022/12/19 07:28:10;;;;;;;0.95;0.95;;;;;;;;;;1846603;77;26254;-87
2022/12/19 07:30:37;;;;;;;0.60;0.60;;;;;;;;;;1847709;77;26243;-88
2022/12/19 07:33:04;;;;;;;1.15;0.93;;;;;;;;;;1846269;77;26337;-86
2022/12/19 07:35:32;;;;;;;0.70;0.70;;;;;;;;;;1839915;76;26350;-88
2022/12/19 07:38:03;;;;;;;1.12;0.70;;;;;;;;;;1839541;76;26242;-88
2022/12/19 07:40:30;;;;;;;0.70;0.70;;;;;;;;;;1837751;77;26314;-88
2022/12/19 07:43:05;;;;;;;0.70;0.70;;;;;;;;;;1837905;76;26905;-89
2022/12/19 07:45:33;;;;;;;0.95;0.82;;;;;;;;;;1837681;76;26324;-88
2022/12/19 07:48:01;;;;;;;0.90;0.90;;;;;;;;;;1840546;77;26247;-88
2022/12/19 07:50:29;;;;;;;1.22;0.82;;;;;;;;;;1836413;77;26741;-89
2022/12/19 07:52:57;;;;;;;0.98;0.90;;;;;;;;;;1838013;76;26302;-90
2022/12/19 07:55:24;;;;;;;5.60;2.10;;;;;;;;;;1849006;73;50365;-38
2022/12/19 07:57:52;;;;;;;13.75;4.30;;;;;;;;;;1852778;77;26259;-39
2022/12/19 08:00:20;;;;;;;15.75;5.53;;;;;;;;;;1854770;77;26790;-40
2022/12/19 08:02:48;;;;;;;14.78;4.20;;;;;;;;;;1850436;76;26371;-40
2022/12/19 08:05:15;;;;;;;9.38;3.70;;;;;;;;;;1852756;77;26323;-37
2022/12/19 08:07:42;;;;;;;10.38;3.45;;;;;;;;;;1850539;77;26335;-39
2022/12/19 08:10:11;;;;;;;10.00;3.50;;;;;;;;;;1853461;77;26285;-40
2022/12/19 08:12:38;;;;;;;8.40;3.50;;;;;;;;;;1852341;77;26320;-38
2022/12/19 08:15:06;;;;;;;6.15;2.80;;;;;;;;;;1853604;77;27441;-41
2022/12/19 08:17:33;;;;;;;9.63;2.95;;;;;;;;;;1848344;77;26284;-38
2022/12/19 08:20:00;;;;;;;5.33;2.85;;;;;;;;;;1848818;77;26250;-42
2022/12/19 08:22:31;;;;;;;5.03;2.67;;;;;;;;;;1850299;77;26745;-41
2022/12/19 08:24:58;;;;;;;5.47;2.42;;;;;;;;;;1851191;77;26347;-40
2022/12/19 08:27:26;;;;;;;4.50;2.17;;;;;;;;;;1852918;77;26682;-37
2022/12/19 08:29:53;;;;;;;3.77;2.20;;;;;;;;;;1853101;77;26374;-43
2022/12/19 08:32:20;;;;;;;3.80;2.40;;;;;;;;;;1851748;77;26329;-37
2022/12/19 08:34:48;;;;;;;3.60;2.08;;;;;;;;;;1849292;77;26272;-40
2022/12/19 08:37:16;;;;;;;5.60;2.20;;;;;;;;;;1849202;76;27670;-40
2022/12/19 08:39:43;;;;;;;3.70;2.00;;;;;;;;;;1851091;77;26356;-46
2022/12/19 08:42:10;;;;;;;3.33;1.90;;;;;;;;;;1849936;77;26269;-44
2022/12/19 08:44:38;;;;;;;3.08;1.90;;;;;;;;;;1849498;77;26273;-38
2022/12/19 08:47:05;;;;;;;2.80;1.80;;;;;;;;;;1846778;77;26665;-38
2022/12/19 08:49:32;;;;;;;2.15;1.60;;;;;;;;;;1848799;77;26540;-41
2022/12/19 08:52:00;;;;;;;2.90;1.50;;;;;;;;;;1850303;77;26323;-36
2022/12/19 08:54:27;;;;;;;3.75;1.82;;;;;;;;;;1848960;77;26376;-42
2022/12/19 08:56:54;;;;;;;1.98;1.57;;;;;;;;;;1861242;76;26296;-42
2022/12/19 08:59:21;;;;;;;2.72;1.40;;;;;;;;;;1865584;76;26269;-36
2022/12/19 09:01:49;;;;;;;1.30;1.22;;;;;;;;;;1827425;78;26353;-40
2022/12/19 09:04:16;;;;;;;2.98;1.60;;;;;;;;;;1796475;79;26434;-42
2022/12/19 09:06:43;;;;;;;1.60;1.50;;;;;;;;;;1793894;79;26332;-35
2022/12/19 09:09:11;;;;;;;2.42;1.30;;;;;;;;;;1794490;79;26252;-41
2022/12/19 09:11:38;;;;;;;1.35;1.35;;;;;;;;;;1828800;77;26304;-33
2022/12/19 09:14:05;;;;;;;2.90;1.30;;;;;;;;;;1795745;79;26374;-47
2022/12/19 09:16:32;;;;;;;1.42;1.32;;;;;;;;;;1804515;78;26404;-42
2022/12/19 09:19:00;;;;;;;3.85;1.10;;;;;;;;;;1809168;78;26260;-35
2022/12/19 09:21:28;;;;;;;2.40;1.30;;;;;;;;;;1827336;78;26732;-40
2022/12/19 09:23:57;;;;;;;1.30;1.20;;;;;;;;;;1828962;78;26248;-40
2022/12/19 09:26:25;;;;;;;1.00;1.00;;;;;;;;;;1826642;78;26676;-37
2022/12/19 09:28:52;;;;;;;1.52;1.30;;;;;;;;;;1803093;78;26358;-39
2022/12/19 09:31:21;;;;;;;1.75;1.10;;;;;;;;;;1796606;79;26244;-37
2022/12/19 09:33:48;;;;;;;1.95;1.12;;;;;;;;;;1822996;78;26630;-43
2022/12/19 09:36:17;;;;;;;1.55;1.25;;;;;;;;;;1829360;78;26262;-43
2022/12/19 09:38:45;;;;;;;1.15;1.07;;;;;;;;;;1802354;78;26618;-41
2022/12/19 09:41:32;;;;;;;1.00;1.00;;;;;;;;;;1825809;78;26322;-43
2022/12/19 09:44:01;;;;;;;1.60;1.30;;;;;;;;;;1793807;79;26334;-37
2022/12/19 09:46:32;;;;;;;1.00;1.00;;;;;;;;;;1801070;78;26344;-39
2022/12/19 09:49:01;;;;;;;1.07;1.00;;;;;;;;;;1813222;78;26355;-38
2022/12/19 09:51:35;;;;;;;0.90;0.90;;;;;;;;;;1795321;79;26776;-39
2022/12/19 09:54:07;;;;;;;0.90;0.90;;;;;;;;;;1796196;79;26838;-39
2022/12/19 09:56:36;;;;;;;1.10;1.00;;;;;;;;;;1803143;79;26940;-36
2022/12/19 09:59:04;;;;;;;1.00;1.00;;;;;;;;;;1796339;79;27886;-41
2022/12/19 10:01:33;;;;;;;0.95;0.95;;;;;;;;;;1800073;79;27380;-43
2022/12/19 10:04:05;;;;;;;1.00;1.00;;;;;;;;;;1799445;78;26333;-38
2022/12/19 10:06:33;;;;;;;1.10;1.10;;;;;;;;;;1825569;78;26304;-41
2022/12/19 10:09:00;;;;;;;1.72;1.07;;;;;;;;;;1827365;78;26355;-38
2022/12/19 10:11:41;;;;;;;1.20;1.10;;;;;;;;;;1826035;78;26276;-38
2022/12/19 10:14:10;;;;;;;0.93;0.93;;;;;;;;;;1787711;79;26343;-37
2022/12/19 10:16:41;;;;;;;1.20;1.20;;;;;;;;;;1804925;78;26570;-36
2022/12/19 10:19:16;;;;;;;1.25;1.20;;;;;;;;;;1799860;79;26324;-39
2022/12/19 10:21:54;;;;;;;1.10;1.10;;;;;;;;;;1804682;78;26431;-38
2022/12/19 10:24:23;;;;;;;1.25;1.15;;;;;;;;;;1796636;79;26629;-36
2022/12/19 10:26:54;;;;;;;1.52;1.10;;;;;;;;;;1807865;78;26653;-39
2022/12/19 10:29:39;;;;;;;1.20;1.20;;;;;;;;;;1828838;77;27033;-36
2022/12/19 10:32:14;;;;;;;1.10;1.10;;;;;;;;;;1815040;78;26257;-42
2022/12/19 10:34:42;;;;;;;1.15;1.15;;;;;;;;;;1801009;79;26377;-39
2022/12/19 10:37:17;;;;;;;1.30;1.30;;;;;;;;;;1797728;79;26272;-36
2022/12/19 10:39:55;;;;;;;1.82;1.45;;;;;;;;;;1810780;78;26312;-41
2022/12/19 10:42:27;;;;;;;1.65;1.55;;;;;;;;;;1803717;79;26416;-45
2022/12/19 10:44:56;;;;;;;1.50;1.40;;;;;;;;;;1801656;78;26349;-36
2022/12/19 10:47:24;;;;;;;2.17;1.55;;;;;;;;;;1800583;79;26406;-38
2022/12/19 10:49:51;;;;;;;2.22;1.45;;;;;;;;;;1809038;77;26895;-38
2022/12/19 10:52:20;;;;;;;1.70;1.60;;;;;;;;;;1804494;79;26329;-40
2022/12/19 10:54:48;;;;;;;2.08;1.85;;;;;;;;;;1826442;78;26312;-36
2022/12/19 10:57:23;;;;;;;1.90;1.80;;;;;;;;;;1830483;76;26311;-38
2022/12/19 10:59:57;;;;;;;2.58;1.80;;;;;;;;;;1793818;79;26283;-35
2022/12/19 11:02:26;;;;;;;1.60;1.50;;;;;;;;;;1829331;77;26291;-39
2022/12/19 11:04:53;;;;;;;2.62;2.00;;;;;;;;;;1806659;78;26319;-39
2022/12/19 11:07:21;;;;;;;2.98;1.80;;;;;;;;;;1807869;78;26800;-41
2022/12/19 11:09:48;;;;;;;2.15;2.02;;;;;;;;;;1802298;79;26317;-44
2022/12/19 11:12:17;;;;;;;2.20;2.00;;;;;;;;;;1797022;78;27000;-42
2022/12/19 11:15:03;;;;;;;1.90;1.80;;;;;;;;;;1828970;78;26324;-39
2022/12/19 11:17:34;;;;;;;2.08;1.90;;;;;;;;;;1827767;78;26326;-38
2022/12/19 11:20:12;;;;;;;2.00;1.90;;;;;;;;;;1802960;78;27008;-44
2022/12/19 11:22:41;;;;;;;3.22;1.95;;;;;;;;;;1814235;78;26801;-38
2022/12/19 11:25:10;;;;;;;3.85;2.00;;;;;;;;;;1812311;78;27418;-36
2022/12/19 11:27:39;;;;;;;2.37;2.00;;;;;;;;;;1808141;78;26354;-37
2022/12/19 11:30:07;;;;;;;3.35;1.67;;;;;;;;;;1841371;77;26342;-42
2022/12/19 11:32:36;;;;;;;2.90;2.05;;;;;;;;;;1840120;77;26272;-47
2022/12/19 11:35:05;;;;;;;1.80;1.60;;;;;;;;;;1835531;78;26590;-49
2022/12/19 11:37:40;;;;;;;2.83;1.57;;;;;;;;;;1794394;79;26216;-39
2022/12/19 11:40:09;;;;;;;2.35;1.60;;;;;;;;;;1800061;79;26288;-40
2022/12/19 11:42:40;;;;;;;2.80;1.72;;;;;;;;;;1797453;79;26780;-41
2022/12/19 11:45:12;;;;;;;1.77;1.67;;;;;;;;;;1799532;79;26336;-40
2022/12/19 11:47:41;;;;;;;4.40;1.70;;;;;;;;;;1811158;78;26329;-36
2022/12/19 11:50:25;;;;;;;1.62;1.52;;;;;;;;;;1823735;78;26324;-40
2022/12/19 11:52:54;;;;;;;1.95;1.85;;;;;;;;;;1794425;79;26358;-40
2022/12/19 11:55:22;;;;;;;1.57;1.47;;;;;;;;;;1811140;78;26220;-40
2022/12/19 11:57:50;;;;;;;2.35;1.77;;;;;;;;;;1808416;78;26495;-44
2022/12/19 12:00:19;;;;;;;1.90;1.40;;;;;;;;;;1778434;79;26596;-38
2022/12/19 12:02:51;;;;;;;2.22;1.85;;;;;;;;;;1805569;77;26817;-48
2022/12/19 12:05:37;;;;;;;2.45;1.82;;;;;;;;;;1804133;78;26315;-35
2022/12/19 12:08:24;;;;;;;1.70;1.62;;;;;;;;;;1811433;77;26290;-49
2022/12/19 12:10:53;;;;;;;4.10;1.55;;;;;;;;;;1794019;78;26729;-38
2022/12/19 12:13:25;;;;;;;1.70;1.60;;;;;;;;;;1805193;78;26740;-35
2022/12/19 12:16:03;;;;;;;1.70;1.60;;;;;;;;;;1805114;77;26363;-37
2022/12/19 12:18:48;;;;;;;1.82;1.42;;;;;;;;;;1810821;79;26315;-35
2022/12/19 12:21:26;;;;;;;2.50;1.50;;;;;;;;;;1805949;79;26249;-39
2022/12/19 12:24:13;;;;;;;1.62;1.52;;;;;;;;;;1809718;78;26311;-38
2022/12/19 12:26:42;;;;;;;1.42;1.40;;;;;;;;;;1806673;77;26265;-35
2022/12/19 12:29:11;;;;;;;1.40;1.40;;;;;;;;;;1809551;79;26274;-34
2022/12/19 12:31:42;;;;;;;1.57;1.50;;;;;;;;;;1756339;79;26434;-39
2022/12/19 12:34:28;;;;;;;1.60;1.55;;;;;;;;;;1799345;78;26512;-38
2022/12/19 12:37:06;;;;;;;1.60;1.50;;;;;;;;;;1796323;79;26566;-39
2022/12/19 12:39:34;;;;;;;1.60;1.50;;;;;;;;;;1799128;78;26737;-42
2022/12/19 12:42:03;;;;;;;1.40;1.40;;;;;;;;;;1803339;78;26854;-35
2022/12/19 12:44:33;;;;;;;1.75;1.65;;;;;;;;;;1778334;79;26584;-36
2022/12/19 12:47:13;;;;;;;3.35;1.40;;;;;;;;;;1803106;78;26387;-37
2022/12/19 12:49:48;;;;;;;2.47;1.52;;;;;;;;;;1803945;78;26339;-37
2022/12/19 12:52:20;;;;;;;1.87;1.57;;;;;;;;;;1806209;78;26911;-36
2022/12/19 12:54:48;;;;;;;1.62;1.52;;;;;;;;;;1773659;79;26356;-45
2022/12/19 12:57:29;;;;;;;1.60;1.60;;;;;;;;;;1772211;79;26246;-38
2022/12/19 13:00:16;;;;;;;2.42;1.70;;;;;;;;;;1804999;77;26315;-38
2022/12/19 13:02:48;;;;;;;1.70;1.60;;;;;;;;;;1794485;79;26562;-36
2022/12/19 13:05:16;;;;;;;1.75;1.70;;;;;;;;;;1770927;80;27086;-41
2022/12/19 13:07:45;;;;;;;1.80;1.70;;;;;;;;;;1803006;79;26322;-36
2022/12/19 13:10:14;;;;;;;1.98;1.87;;;;;;;;;;1800296;78;26267;-36
2022/12/19 13:13:01;;;;;;;1.65;1.65;;;;;;;;;;1781432;80;26354;-37
2022/12/19 13:15:31;;;;;;;1.70;1.65;;;;;;;;;;1742478;79;26333;-40
2022/12/19 13:18:08;;;;;;;1.37;1.37;;;;;;;;;;1807760;79;26385;-37
2022/12/19 13:20:40;;;;;;;2.17;1.65;;;;;;;;;;1808458;79;26350;-39
2022/12/19 13:23:09;;;;;;;1.80;1.70;;;;;;;;;;1783415;79;26231;-40
2022/12/19 13:25:38;;;;;;;1.52;1.50;;;;;;;;;;1787331;77;26363;-42
2022/12/19 13:28:16;;;;;;;1.72;1.62;;;;;;;;;;1784962;79;26290;-40
2022/12/19 13:31:03;;;;;;;1.62;1.52;;;;;;;;;;1801954;77;26321;-47
2022/12/19 13:33:47;;;;;;;1.50;1.50;;;;;;;;;;1772970;79;27431;-37
2022/12/19 13:36:32;;;;;;;1.77;1.67;;;;;;;;;;1766260;79;27095;-44
2022/12/19 13:39:00;;;;;;;2.62;1.60;;;;;;;;;;1776090;80;26324;-42
2022/12/19 13:44:15;;;;;;;1.55;1.52;;;;;;;;;;1787836;78;26975;-37
2022/12/19 13:46:44;;;;;;;1.70;1.60;;;;;;;;;;1791654;78;26323;-41
2022/12/19 13:49:13;;;;;;;2.15;1.80;;;;;;;;;;1808666;79;26842;-42
2022/12/19 13:51:50;;;;;;;1.60;1.52;;;;;;;;;;1806950;79;26524;-37
2022/12/19 13:54:29;;;;;;;1.70;1.70;;;;;;;;;;1809620;79;26376;-37
2022/12/19 13:56:57;;;;;;;1.50;1.50;;;;;;;;;;1775468;79;27448;-40
2022/12/19 13:59:26;;;;;;;1.87;1.77;;;;;;;;;;1766999;78;26860;-38
2022/12/19 14:01:54;;;;;;;1.90;1.80;;;;;;;;;;1773078;79;26382;-41
2022/12/19 14:04:29;;;;;;;1.82;1.72;;;;;;;;;;1764933;80;26382;-38
2022/12/19 14:06:57;;;;;;;1.67;1.57;;;;;;;;;;1785240;79;26350;-38
2022/12/19 14:09:26;;;;;;;1.80;1.70;;;;;;;;;;1768460;80;26431;-38
2022/12/19 14:11:55;;;;;;;1.60;1.60;;;;;;;;;;1770522;79;26272;-38
2022/12/19 14:17:08;;;;;;;1.87;1.77;;;;;;;;;;1785575;79;26578;-35
2022/12/19 14:19:40;;;;;;;1.80;1.70;;;;;;;;;;1792121;79;26395;-38
2022/12/19 14:22:11;;;;;;;1.80;1.70;;;;;;;;;;1792776;79;26282;-36
2022/12/19 14:24:39;;;;;;;1.60;1.60;;;;;;;;;;1789122;79;26391;-36
2022/12/19 14:27:08;;;;;;;1.57;1.47;;;;;;;;;;1787817;79;26328;-37
2022/12/19 14:29:37;;;;;;;2.02;1.92;;;;;;;;;;1768221;80;26323;-41
2022/12/19 14:32:04;;;;;;;1.65;1.57;;;;;;;;;;1760534;80;26295;-36
2022/12/19 14:34:33;;;;;;;1.70;1.60;;;;;;;;;;1792792;79;26767;-39
2022/12/19 14:37:00;;;;;;;1.85;1.75;;;;;;;;;;1791127;79;26271;-36
2022/12/19 14:39:29;;;;;;;1.90;1.80;;;;;;;;;;1756564;81;26361;-50
2022/12/19 14:44:54;;;;;;;1.72;1.62;;;;;;;;;;1789187;79;27183;-36
2022/12/19 14:47:22;;;;;;;1.80;1.70;;;;;;;;;;1768738;80;26417;-46
2022/12/19 14:49:50;;;;;;;1.75;1.70;;;;;;;;;;1790938;79;26283;-36
2022/12/19 14:52:35;;;;;;;1.70;1.60;;;;;;;;;;1753766;80;26321;-34
2022/12/19 14:55:21;;;;;;;1.70;1.60;;;;;;;;;;1765208;80;26563;-38
2022/12/19 14:57:49;;;;;;;2.00;1.90;;;;;;;;;;1763910;79;26361;-36
2022/12/19 15:00:24;;;;;;;1.95;1.82;;;;;;;;;;1776484;79;26927;-37
2022/12/19 15:02:52;;;;;;;2.00;1.90;;;;;;;;;;1801774;78;26745;-37
2022/12/19 15:05:20;;;;;;;1.80;1.70;;;;;;;;;;1806233;78;26267;-41
2022/12/19 15:07:49;;;;;;;2.12;2.00;;;;;;;;;;1804452;78;26808;-42
2022/12/19 15:10:17;;;;;;;2.47;2.30;;;;;;;;;;1801223;78;27299;-35